sensor_id;sensor_type;location;lat;lon;timestamp;P1;durP1;ratioP1;P2;durP2;ratioP2
13122;SDS011;6627;50.920;12.050;2023-07-02T00:01:53;1.63;;;1.50;;
13122;SDS011;6627;50.920;12.050;2023-07-02T00:04:24;2.20;;;1.60;;
13122;SDS011;6627;50.920;12.050;2023-07-02T00:06:57;3.13;;;1.50;;
13122;SDS011;6627;50.920;12.050;2023-07-02T00:09:29;2.00;;;1.40;;
13122;SDS011;6627;50.920;12.050;2023-07-02T00:12:02;5.63;;;1.80;;
13122;SDS011;6627;50.920;12.050;2023-07-02T00:14:39;1.63;;;1.53;;
13122;SDS011;6627;50.920;12.050;2023-07-02T00:17:14;1.40;;;1.30;;
13122;SDS011;6627;50.920;12.050;2023-07-02T00:19:46;2.03;;;1.43;;
13122;SDS011;6627;50.920;12.050;2023-07-02T00:22:21;1.70;;;1.60;;
13122;SDS011;6627;50.920;12.050;2023-07-02T00:24:54;3.53;;;1.50;;
13122;SDS011;6627;50.920;12.050;2023-07-02T00:27:25;1.60;;;1.50;;
13122;SDS011;6627;50.920;12.050;2023-07-02T00:29:58;3.93;;;1.50;;
13122;SDS011;6627;50.920;12.050;2023-07-02T00:32:28;2.13;;;1.50;;
13122;SDS011;6627;50.920;12.050;2023-07-02T00:34:57;1.57;;;1.40;;
13122;SDS011;6627;50.920;12.050;2023-07-02T00:37:26;2.73;;;1.57;;
13122;SDS011;6627;50.920;12.050;2023-07-02T00:39:58;1.50;;;1.40;;
13122;SDS011;6627;50.920;12.050;2023-07-02T00:42:38;3.57;;;1.40;;
13122;SDS011;6627;50.920;12.050;2023-07-02T00:45:16;2.73;;;1.43;;
13122;SDS011;6627;50.920;12.050;2023-07-02T00:47:47;2.70;;;1.60;;
13122;SDS011;6627;50.920;12.050;2023-07-02T00:50:21;2.43;;;1.67;;
13122;SDS011;6627;50.920;12.050;2023-07-02T00:52:51;2.23;;;1.60;;
13122;SDS011;6627;50.920;12.050;2023-07-02T00:55:28;1.77;;;1.33;;
13122;SDS011;6627;50.920;12.050;2023-07-02T00:58:00;1.97;;;1.50;;
13122;SDS011;6627;50.920;12.050;2023-07-02T01:00:34;1.90;;;1.67;;
13122;SDS011;6627;50.920;12.050;2023-07-02T01:03:07;2.63;;;1.60;;
13122;SDS011;6627;50.920;12.050;2023-07-02T01:05:36;3.10;;;1.70;;
13122;SDS011;6627;50.920;12.050;2023-07-02T01:08:09;2.13;;;1.40;;
13122;SDS011;6627;50.920;12.050;2023-07-02T01:10:40;2.07;;;1.77;;
13122;SDS011;6627;50.920;12.050;2023-07-02T01:13:14;1.73;;;1.47;;
13122;SDS011;6627;50.920;12.050;2023-07-02T01:15:51;1.57;;;1.47;;
13122;SDS011;6627;50.920;12.050;2023-07-02T01:18:24;3.77;;;1.70;;
13122;SDS011;6627;50.920;12.050;2023-07-02T01:20:55;2.40;;;1.80;;
13122;SDS011;6627;50.920;12.050;2023-07-02T01:23:26;2.40;;;1.60;;
13122;SDS011;6627;50.920;12.050;2023-07-02T01:25:59;1.97;;;1.80;;
13122;SDS011;6627;50.920;12.050;2023-07-02T01:28:33;3.23;;;1.40;;
13122;SDS011;6627;50.920;12.050;2023-07-02T01:31:06;4.30;;;1.50;;
13122;SDS011;6627;50.920;12.050;2023-07-02T01:33:38;3.93;;;1.60;;
13122;SDS011;6627;50.920;12.050;2023-07-02T01:36:11;2.83;;;1.63;;
13122;SDS011;6627;50.920;12.050;2023-07-02T01:38:44;4.57;;;1.80;;
13122;SDS011;6627;50.920;12.050;2023-07-02T01:41:19;1.70;;;1.40;;
13122;SDS011;6627;50.920;12.050;2023-07-02T01:43:51;1.97;;;1.60;;
13122;SDS011;6627;50.920;12.050;2023-07-02T01:46:21;2.13;;;1.93;;
13122;SDS011;6627;50.920;12.050;2023-07-02T01:48:58;3.73;;;2.00;;
13122;SDS011;6627;50.920;12.050;2023-07-02T01:51:34;3.63;;;1.90;;
13122;SDS011;6627;50.920;12.050;2023-07-02T01:54:06;8.20;;;2.13;;
13122;SDS011;6627;50.920;12.050;2023-07-02T01:56:38;4.53;;;1.60;;
13122;SDS011;6627;50.920;12.050;2023-07-02T01:59:09;1.90;;;1.77;;
13122;SDS011;6627;50.920;12.050;2023-07-02T02:01:39;2.27;;;1.90;;
13122;SDS011;6627;50.920;12.050;2023-07-02T02:04:10;2.00;;;1.83;;
13122;SDS011;6627;50.920;12.050;2023-07-02T02:06:42;3.07;;;1.63;;
13122;SDS011;6627;50.920;12.050;2023-07-02T02:09:10;2.80;;;1.80;;
13122;SDS011;6627;50.920;12.050;2023-07-02T02:11:40;2.23;;;2.03;;
13122;SDS011;6627;50.920;12.050;2023-07-02T02:14:16;1.83;;;1.70;;
13122;SDS011;6627;50.920;12.050;2023-07-02T02:16:48;4.00;;;2.23;;
13122;SDS011;6627;50.920;12.050;2023-07-02T02:19:20;4.13;;;1.73;;
13122;SDS011;6627;50.920;12.050;2023-07-02T02:21:51;2.10;;;1.90;;
13122;SDS011;6627;50.920;12.050;2023-07-02T02:24:20;2.33;;;1.80;;
13122;SDS011;6627;50.920;12.050;2023-07-02T02:26:55;3.50;;;2.10;;
13122;SDS011;6627;50.920;12.050;2023-07-02T02:29:40;3.83;;;1.83;;
13122;SDS011;6627;50.920;12.050;2023-07-02T02:32:11;3.13;;;2.00;;
13122;SDS011;6627;50.920;12.050;2023-07-02T02:34:44;2.20;;;2.00;;
13122;SDS011;6627;50.920;12.050;2023-07-02T02:37:15;3.30;;;2.17;;
13122;SDS011;6627;50.920;12.050;2023-07-02T02:39:46;2.73;;;2.03;;
13122;SDS011;6627;50.920;12.050;2023-07-02T02:42:18;3.67;;;2.20;;
13122;SDS011;6627;50.920;12.050;2023-07-02T02:44:51;6.00;;;2.17;;
13122;SDS011;6627;50.920;12.050;2023-07-02T02:47:24;3.80;;;2.30;;
13122;SDS011;6627;50.920;12.050;2023-07-02T02:49:55;2.77;;;2.20;;
13122;SDS011;6627;50.920;12.050;2023-07-02T02:52:27;4.97;;;2.43;;
13122;SDS011;6627;50.920;12.050;2023-07-02T02:54:59;2.40;;;2.20;;
13122;SDS011;6627;50.920;12.050;2023-07-02T02:57:31;4.80;;;2.40;;
13122;SDS011;6627;50.920;12.050;2023-07-02T03:00:02;3.17;;;2.30;;
13122;SDS011;6627;50.920;12.050;2023-07-02T03:02:43;5.60;;;2.60;;
13122;SDS011;6627;50.920;12.050;2023-07-02T03:05:15;7.10;;;3.10;;
13122;SDS011;6627;50.920;12.050;2023-07-02T03:07:49;6.93;;;2.80;;
13122;SDS011;6627;50.920;12.050;2023-07-02T03:10:21;3.53;;;2.80;;
13122;SDS011;6627;50.920;12.050;2023-07-02T03:12:50;3.77;;;2.87;;
13122;SDS011;6627;50.920;12.050;2023-07-02T03:15:21;4.47;;;2.63;;
13122;SDS011;6627;50.920;12.050;2023-07-02T03:17:55;4.43;;;3.00;;
13122;SDS011;6627;50.920;12.050;2023-07-02T03:20:25;5.77;;;2.87;;
13122;SDS011;6627;50.920;12.050;2023-07-02T03:22:59;3.77;;;2.53;;
13122;SDS011;6627;50.920;12.050;2023-07-02T03:25:35;3.67;;;2.80;;
13122;SDS011;6627;50.920;12.050;2023-07-02T03:28:07;3.20;;;2.90;;
13122;SDS011;6627;50.920;12.050;2023-07-02T03:30:38;6.37;;;3.10;;
13122;SDS011;6627;50.920;12.050;2023-07-02T03:33:08;3.87;;;2.50;;
13122;SDS011;6627;50.920;12.050;2023-07-02T03:35:42;3.23;;;2.80;;
13122;SDS011;6627;50.920;12.050;2023-07-02T03:38:16;7.53;;;2.83;;
13122;SDS011;6627;50.920;12.050;2023-07-02T03:40:50;3.13;;;2.70;;
13122;SDS011;6627;50.920;12.050;2023-07-02T03:43:24;6.30;;;3.20;;
13122;SDS011;6627;50.920;12.050;2023-07-02T03:45:57;3.23;;;2.93;;
13122;SDS011;6627;50.920;12.050;2023-07-02T03:48:30;3.47;;;2.93;;
13122;SDS011;6627;50.920;12.050;2023-07-02T03:51:05;4.63;;;2.87;;
13122;SDS011;6627;50.920;12.050;2023-07-02T03:53:41;3.23;;;2.93;;
13122;SDS011;6627;50.920;12.050;2023-07-02T03:56:14;6.03;;;2.93;;
13122;SDS011;6627;50.920;12.050;2023-07-02T03:58:51;7.20;;;3.20;;
13122;SDS011;6627;50.920;12.050;2023-07-02T04:01:23;5.67;;;3.40;;
13122;SDS011;6627;50.920;12.050;2023-07-02T04:03:56;5.07;;;3.23;;
13122;SDS011;6627;50.920;12.050;2023-07-02T04:06:31;5.67;;;3.27;;
13122;SDS011;6627;50.920;12.050;2023-07-02T04:09:08;5.23;;;3.20;;
13122;SDS011;6627;50.920;12.050;2023-07-02T04:11:43;3.47;;;3.17;;
13122;SDS011;6627;50.920;12.050;2023-07-02T04:14:15;3.67;;;3.27;;
13122;SDS011;6627;50.920;12.050;2023-07-02T04:16:44;5.27;;;3.20;;
13122;SDS011;6627;50.920;12.050;2023-07-02T04:19:14;4.17;;;3.20;;
13122;SDS011;6627;50.920;12.050;2023-07-02T04:21:47;4.30;;;3.50;;
13122;SDS011;6627;50.920;12.050;2023-07-02T04:24:16;8.57;;;3.47;;
13122;SDS011;6627;50.920;12.050;2023-07-02T04:26:45;5.10;;;3.67;;
13122;SDS011;6627;50.920;12.050;2023-07-02T04:29:16;5.27;;;3.63;;
13122;SDS011;6627;50.920;12.050;2023-07-02T04:31:50;5.87;;;3.63;;
13122;SDS011;6627;50.920;12.050;2023-07-02T04:34:23;4.53;;;3.73;;
13122;SDS011;6627;50.920;12.050;2023-07-02T04:36:59;4.37;;;3.37;;
13122;SDS011;6627;50.920;12.050;2023-07-02T04:39:32;4.10;;;3.37;;
13122;SDS011;6627;50.920;12.050;2023-07-02T04:42:03;3.47;;;3.17;;
13122;SDS011;6627;50.920;12.050;2023-07-02T04:44:35;3.80;;;3.50;;
13122;SDS011;6627;50.920;12.050;2023-07-02T04:47:07;4.03;;;3.17;;
13122;SDS011;6627;50.920;12.050;2023-07-02T04:49:36;3.83;;;3.30;;
13122;SDS011;6627;50.920;12.050;2023-07-02T04:52:09;4.53;;;3.47;;
13122;SDS011;6627;50.920;12.050;2023-07-02T04:54:42;4.43;;;3.50;;
13122;SDS011;6627;50.920;12.050;2023-07-02T04:57:11;5.23;;;3.20;;
13122;SDS011;6627;50.920;12.050;2023-07-02T04:59:42;4.07;;;3.53;;
13122;SDS011;6627;50.920;12.050;2023-07-02T05:02:18;4.03;;;3.43;;
13122;SDS011;6627;50.920;12.050;2023-07-02T05:04:51;3.57;;;3.27;;
13122;SDS011;6627;50.920;12.050;2023-07-02T05:07:19;3.60;;;3.30;;
13122;SDS011;6627;50.920;12.050;2023-07-02T05:09:50;4.10;;;3.30;;
13122;SDS011;6627;50.920;12.050;2023-07-02T05:12:23;4.30;;;3.20;;
13122;SDS011;6627;50.920;12.050;2023-07-02T05:14:54;4.53;;;3.03;;
13122;SDS011;6627;50.920;12.050;2023-07-02T05:17:25;3.97;;;3.17;;
13122;SDS011;6627;50.920;12.050;2023-07-02T05:19:54;4.83;;;3.30;;
13122;SDS011;6627;50.920;12.050;2023-07-02T05:22:27;3.53;;;2.90;;
13122;SDS011;6627;50.920;12.050;2023-07-02T05:25:00;3.60;;;3.20;;
13122;SDS011;6627;50.920;12.050;2023-07-02T05:27:32;3.60;;;3.30;;
13122;SDS011;6627;50.920;12.050;2023-07-02T05:30:03;3.43;;;2.87;;
13122;SDS011;6627;50.920;12.050;2023-07-02T05:32:41;3.20;;;3.00;;
13122;SDS011;6627;50.920;12.050;2023-07-02T05:35:10;3.10;;;2.80;;
13122;SDS011;6627;50.920;12.050;2023-07-02T05:37:42;3.40;;;3.10;;
13122;SDS011;6627;50.920;12.050;2023-07-02T05:40:22;3.53;;;2.97;;
13122;SDS011;6627;50.920;12.050;2023-07-02T05:42:54;3.87;;;3.33;;
13122;SDS011;6627;50.920;12.050;2023-07-02T05:45:32;3.47;;;3.17;;
13122;SDS011;6627;50.920;12.050;2023-07-02T05:48:07;4.67;;;3.00;;
13122;SDS011;6627;50.920;12.050;2023-07-02T05:50:48;4.73;;;3.20;;
13122;SDS011;6627;50.920;12.050;2023-07-02T05:53:18;3.57;;;3.03;;
13122;SDS011;6627;50.920;12.050;2023-07-02T05:55:53;5.80;;;3.07;;
13122;SDS011;6627;50.920;12.050;2023-07-02T05:58:32;3.53;;;2.97;;
13122;SDS011;6627;50.920;12.050;2023-07-02T06:01:07;3.03;;;2.83;;
13122;SDS011;6627;50.920;12.050;2023-07-02T06:03:40;4.73;;;3.47;;
13122;SDS011;6627;50.920;12.050;2023-07-02T06:06:16;2.87;;;2.67;;
13122;SDS011;6627;50.920;12.050;2023-07-02T06:08:50;4.50;;;3.07;;
13122;SDS011;6627;50.920;12.050;2023-07-02T06:11:28;5.80;;;2.70;;
13122;SDS011;6627;50.920;12.050;2023-07-02T06:14:06;3.80;;;2.67;;
13122;SDS011;6627;50.920;12.050;2023-07-02T06:16:36;5.40;;;2.73;;
13122;SDS011;6627;50.920;12.050;2023-07-02T06:19:09;3.20;;;2.60;;
13122;SDS011;6627;50.920;12.050;2023-07-02T06:21:39;2.60;;;2.40;;
13122;SDS011;6627;50.920;12.050;2023-07-02T06:24:09;4.47;;;2.60;;
13122;SDS011;6627;50.920;12.050;2023-07-02T06:26:41;2.80;;;2.60;;
13122;SDS011;6627;50.920;12.050;2023-07-02T06:29:26;6.87;;;2.80;;
13122;SDS011;6627;50.920;12.050;2023-07-02T06:32:00;4.60;;;2.33;;
13122;SDS011;6627;50.920;12.050;2023-07-02T06:34:34;2.77;;;2.53;;
13122;SDS011;6627;50.920;12.050;2023-07-02T06:37:10;2.57;;;2.37;;
13122;SDS011;6627;50.920;12.050;2023-07-02T06:39:51;2.17;;;2.00;;
13122;SDS011;6627;50.920;12.050;2023-07-02T06:42:28;5.30;;;2.27;;
13122;SDS011;6627;50.920;12.050;2023-07-02T06:45:00;3.00;;;1.97;;
13122;SDS011;6627;50.920;12.050;2023-07-02T06:47:33;2.30;;;2.10;;
13122;SDS011;6627;50.920;12.050;2023-07-02T06:50:05;2.50;;;2.00;;
13122;SDS011;6627;50.920;12.050;2023-07-02T06:52:41;5.10;;;2.20;;
13122;SDS011;6627;50.920;12.050;2023-07-02T06:55:13;2.43;;;2.23;;
13122;SDS011;6627;50.920;12.050;2023-07-02T06:57:44;2.73;;;1.80;;
13122;SDS011;6627;50.920;12.050;2023-07-02T07:00:18;2.50;;;1.80;;
13122;SDS011;6627;50.920;12.050;2023-07-02T07:02:49;2.20;;;1.97;;
13122;SDS011;6627;50.920;12.050;2023-07-02T07:05:20;1.80;;;1.70;;
13122;SDS011;6627;50.920;12.050;2023-07-02T07:07:55;6.43;;;1.90;;
13122;SDS011;6627;50.920;12.050;2023-07-02T07:10:36;2.40;;;2.03;;
13122;SDS011;6627;50.920;12.050;2023-07-02T07:13:12;2.30;;;2.10;;
13122;SDS011;6627;50.920;12.050;2023-07-02T07:15:48;2.23;;;2.00;;
13122;SDS011;6627;50.920;12.050;2023-07-02T07:18:23;1.87;;;1.77;;
13122;SDS011;6627;50.920;12.050;2023-07-02T07:21:01;2.10;;;1.90;;
13122;SDS011;6627;50.920;12.050;2023-07-02T07:23:33;2.20;;;2.00;;
13122;SDS011;6627;50.920;12.050;2023-07-02T07:26:04;3.20;;;1.57;;
13122;SDS011;6627;50.920;12.050;2023-07-02T07:28:36;5.47;;;1.90;;
13122;SDS011;6627;50.920;12.050;2023-07-02T07:31:10;1.83;;;1.60;;
13122;SDS011;6627;50.920;12.050;2023-07-02T07:33:40;1.93;;;1.60;;
13122;SDS011;6627;50.920;12.050;2023-07-02T07:36:10;2.83;;;2.13;;
13122;SDS011;6627;50.920;12.050;2023-07-02T07:38:39;2.83;;;1.90;;
13122;SDS011;6627;50.920;12.050;2023-07-02T07:41:10;2.10;;;1.70;;
13122;SDS011;6627;50.920;12.050;2023-07-02T07:43:43;1.77;;;1.50;;
13122;SDS011;6627;50.920;12.050;2023-07-02T07:46:14;2.83;;;1.70;;
13122;SDS011;6627;50.920;12.050;2023-07-02T07:48:45;1.87;;;1.67;;
13122;SDS011;6627;50.920;12.050;2023-07-02T07:51:17;1.70;;;1.60;;
13122;SDS011;6627;50.920;12.050;2023-07-02T07:53:55;3.00;;;2.30;;
13122;SDS011;6627;50.920;12.050;2023-07-02T07:56:29;1.83;;;1.53;;
13122;SDS011;6627;50.920;12.050;2023-07-02T07:59:02;2.27;;;1.53;;
13122;SDS011;6627;50.920;12.050;2023-07-02T08:01:33;4.13;;;2.10;;
13122;SDS011;6627;50.920;12.050;2023-07-02T08:04:05;4.53;;;2.40;;
13122;SDS011;6627;50.920;12.050;2023-07-02T08:06:47;2.80;;;1.57;;
13122;SDS011;6627;50.920;12.050;2023-07-02T08:09:24;1.50;;;1.40;;
13122;SDS011;6627;50.920;12.050;2023-07-02T08:11:58;1.77;;;1.67;;
13122;SDS011;6627;50.920;12.050;2023-07-02T08:14:36;2.33;;;1.63;;
13122;SDS011;6627;50.920;12.050;2023-07-02T08:17:08;1.67;;;1.57;;
13122;SDS011;6627;50.920;12.050;2023-07-02T08:19:37;4.07;;;1.77;;
13122;SDS011;6627;50.920;12.050;2023-07-02T08:22:08;1.73;;;1.60;;
13122;SDS011;6627;50.920;12.050;2023-07-02T08:24:44;2.73;;;1.63;;
13122;SDS011;6627;50.920;12.050;2023-07-02T08:27:24;3.77;;;1.57;;
13122;SDS011;6627;50.920;12.050;2023-07-02T08:30:01;1.73;;;1.60;;
13122;SDS011;6627;50.920;12.050;2023-07-02T08:32:33;1.70;;;1.60;;
13122;SDS011;6627;50.920;12.050;2023-07-02T08:35:12;1.77;;;1.50;;
13122;SDS011;6627;50.920;12.050;2023-07-02T08:37:48;2.57;;;1.50;;
13122;SDS011;6627;50.920;12.050;2023-07-02T08:40:20;2.83;;;1.83;;
13122;SDS011;6627;50.920;12.050;2023-07-02T08:42:56;3.20;;;1.60;;
13122;SDS011;6627;50.920;12.050;2023-07-02T08:45:29;2.63;;;1.80;;
13122;SDS011;6627;50.920;12.050;2023-07-02T08:48:08;2.33;;;1.90;;
13122;SDS011;6627;50.920;12.050;2023-07-02T08:50:40;2.40;;;2.07;;
13122;SDS011;6627;50.920;12.050;2023-07-02T08:53:11;2.27;;;1.97;;
13122;SDS011;6627;50.920;12.050;2023-07-02T08:55:44;2.47;;;1.90;;
13122;SDS011;6627;50.920;12.050;2023-07-02T08:58:19;3.40;;;1.80;;
13122;SDS011;6627;50.920;12.050;2023-07-02T09:01:07;3.23;;;1.80;;
13122;SDS011;6627;50.920;12.050;2023-07-02T09:03:45;2.33;;;1.87;;
13122;SDS011;6627;50.920;12.050;2023-07-02T09:06:21;2.97;;;1.87;;
13122;SDS011;6627;50.920;12.050;2023-07-02T09:09:03;1.67;;;1.57;;
13122;SDS011;6627;50.920;12.050;2023-07-02T09:11:34;4.43;;;2.10;;
13122;SDS011;6627;50.920;12.050;2023-07-02T09:14:23;2.23;;;1.80;;
13122;SDS011;6627;50.920;12.050;2023-07-02T09:17:07;2.13;;;1.93;;
13122;SDS011;6627;50.920;12.050;2023-07-02T09:19:49;4.60;;;1.90;;
13122;SDS011;6627;50.920;12.050;2023-07-02T09:22:28;4.93;;;2.20;;
13122;SDS011;6627;50.920;12.050;2023-07-02T09:24:59;2.87;;;2.20;;
13122;SDS011;6627;50.920;12.050;2023-07-02T09:27:36;6.23;;;2.70;;
13122;SDS011;6627;50.920;12.050;2023-07-02T09:30:21;6.73;;;2.30;;
13122;SDS011;6627;50.920;12.050;2023-07-02T09:32:55;3.67;;;2.40;;
13122;SDS011;6627;50.920;12.050;2023-07-02T09:35:35;3.53;;;2.07;;
13122;SDS011;6627;50.920;12.050;2023-07-02T09:38:17;5.23;;;2.80;;
13122;SDS011;6627;50.920;12.050;2023-07-02T09:40:58;3.80;;;2.20;;
13122;SDS011;6627;50.920;12.050;2023-07-02T09:43:38;4.50;;;2.30;;
13122;SDS011;6627;50.920;12.050;2023-07-02T09:46:16;2.73;;;2.33;;
13122;SDS011;6627;50.920;12.050;2023-07-02T09:48:46;2.77;;;2.23;;
13122;SDS011;6627;50.920;12.050;2023-07-02T09:51:23;3.63;;;2.43;;
13122;SDS011;6627;50.920;12.050;2023-07-02T09:53:53;4.93;;;2.47;;
13122;SDS011;6627;50.920;12.050;2023-07-02T09:56:29;2.53;;;2.33;;
13122;SDS011;6627;50.920;12.050;2023-07-02T09:58:58;3.53;;;2.20;;
13122;SDS011;6627;50.920;12.050;2023-07-02T10:01:28;4.73;;;2.67;;
13122;SDS011;6627;50.920;12.050;2023-07-02T10:03:58;3.10;;;2.43;;
13122;SDS011;6627;50.920;12.050;2023-07-02T10:06:45;3.27;;;2.13;;
13122;SDS011;6627;50.920;12.050;2023-07-02T10:09:21;2.90;;;2.23;;
13122;SDS011;6627;50.920;12.050;2023-07-02T10:12:17;8.03;;;2.30;;
13122;SDS011;6627;50.920;12.050;2023-07-02T10:14:56;6.73;;;2.70;;
13122;SDS011;6627;50.920;12.050;2023-07-02T10:17:29;4.47;;;2.23;;
13122;SDS011;6627;50.920;12.050;2023-07-02T10:20:15;4.33;;;2.40;;
13122;SDS011;6627;50.920;12.050;2023-07-02T10:22:50;2.37;;;2.17;;
13122;SDS011;6627;50.920;12.050;2023-07-02T10:25:23;3.80;;;2.30;;
13122;SDS011;6627;50.920;12.050;2023-07-02T10:28:00;3.60;;;2.50;;
13122;SDS011;6627;50.920;12.050;2023-07-02T10:30:45;3.17;;;2.30;;
13122;SDS011;6627;50.920;12.050;2023-07-02T10:33:22;4.10;;;2.20;;
13122;SDS011;6627;50.920;12.050;2023-07-02T10:35:57;4.67;;;2.40;;
13122;SDS011;6627;50.920;12.050;2023-07-02T10:38:36;3.13;;;2.37;;
13122;SDS011;6627;50.920;12.050;2023-07-02T10:41:11;3.27;;;2.10;;
13122;SDS011;6627;50.920;12.050;2023-07-02T10:43:52;3.47;;;2.30;;
13122;SDS011;6627;50.920;12.050;2023-07-02T10:46:24;3.13;;;2.27;;
13122;SDS011;6627;50.920;12.050;2023-07-02T10:49:00;3.23;;;2.40;;
13122;SDS011;6627;50.920;12.050;2023-07-02T10:51:41;5.63;;;2.53;;
13122;SDS011;6627;50.920;12.050;2023-07-02T10:54:24;5.43;;;2.57;;
13122;SDS011;6627;50.920;12.050;2023-07-02T10:56:56;3.23;;;2.47;;
13122;SDS011;6627;50.920;12.050;2023-07-02T10:59:27;2.90;;;1.97;;
13122;SDS011;6627;50.920;12.050;2023-07-02T11:02:07;6.60;;;2.30;;
13122;SDS011;6627;50.920;12.050;2023-07-02T11:04:41;2.37;;;2.17;;
13122;SDS011;6627;50.920;12.050;2023-07-02T11:07:14;4.30;;;2.03;;
13122;SDS011;6627;50.920;12.050;2023-07-02T11:10:00;3.30;;;2.30;;
13122;SDS011;6627;50.920;12.050;2023-07-02T11:12:33;4.80;;;2.43;;
13122;SDS011;6627;50.920;12.050;2023-07-02T11:15:07;4.07;;;2.40;;
13122;SDS011;6627;50.920;12.050;2023-07-02T11:17:45;4.63;;;2.63;;
13122;SDS011;6627;50.920;12.050;2023-07-02T11:20:19;4.53;;;2.70;;
13122;SDS011;6627;50.920;12.050;2023-07-02T11:22:55;3.13;;;2.40;;
13122;SDS011;6627;50.920;12.050;2023-07-02T11:25:34;5.47;;;2.50;;
13122;SDS011;6627;50.920;12.050;2023-07-02T11:28:08;6.30;;;2.80;;
13122;SDS011;6627;50.920;12.050;2023-07-02T11:30:44;3.97;;;2.70;;
13122;SDS011;6627;50.920;12.050;2023-07-02T11:33:34;5.03;;;3.00;;
13122;SDS011;6627;50.920;12.050;2023-07-02T11:36:19;8.33;;;2.80;;
13122;SDS011;6627;50.920;12.050;2023-07-02T11:38:55;7.33;;;2.87;;
13122;SDS011;6627;50.920;12.050;2023-07-02T11:41:36;4.80;;;2.70;;
13122;SDS011;6627;50.920;12.050;2023-07-02T11:44:11;3.80;;;2.90;;
13122;SDS011;6627;50.920;12.050;2023-07-02T11:46:51;3.73;;;3.00;;
13122;SDS011;6627;50.920;12.050;2023-07-02T11:49:26;5.33;;;2.77;;
13122;SDS011;6627;50.920;12.050;2023-07-02T11:51:56;3.77;;;2.97;;
13122;SDS011;6627;50.920;12.050;2023-07-02T11:54:41;4.33;;;2.70;;
13122;SDS011;6627;50.920;12.050;2023-07-02T11:57:16;6.47;;;3.23;;
13122;SDS011;6627;50.920;12.050;2023-07-02T11:59:53;3.53;;;2.93;;
13122;SDS011;6627;50.920;12.050;2023-07-02T12:02:28;7.80;;;3.43;;
13122;SDS011;6627;50.920;12.050;2023-07-02T12:05:05;5.07;;;3.20;;
13122;SDS011;6627;50.920;12.050;2023-07-02T12:07:39;5.13;;;3.03;;
13122;SDS011;6627;50.920;12.050;2023-07-02T12:10:15;6.10;;;3.63;;
13122;SDS011;6627;50.920;12.050;2023-07-02T12:12:44;4.10;;;3.67;;
13122;SDS011;6627;50.920;12.050;2023-07-02T12:15:22;8.03;;;3.70;;
13122;SDS011;6627;50.920;12.050;2023-07-02T12:17:56;6.10;;;3.67;;
13122;SDS011;6627;50.920;12.050;2023-07-02T12:20:30;4.30;;;3.60;;
13122;SDS011;6627;50.920;12.050;2023-07-02T12:23:02;7.00;;;4.07;;
13122;SDS011;6627;50.920;12.050;2023-07-02T12:25:39;5.43;;;3.97;;
13122;SDS011;6627;50.920;12.050;2023-07-02T12:28:18;6.57;;;3.73;;
13122;SDS011;6627;50.920;12.050;2023-07-02T12:30:55;7.53;;;4.23;;
13122;SDS011;6627;50.920;12.050;2023-07-02T12:33:24;5.53;;;4.10;;
13122;SDS011;6627;50.920;12.050;2023-07-02T12:35:57;8.10;;;4.30;;
13122;SDS011;6627;50.920;12.050;2023-07-02T12:38:35;6.57;;;3.73;;
13122;SDS011;6627;50.920;12.050;2023-07-02T12:41:08;6.90;;;4.57;;
13122;SDS011;6627;50.920;12.050;2023-07-02T12:43:45;6.17;;;4.30;;
13122;SDS011;6627;50.920;12.050;2023-07-02T12:46:24;6.50;;;4.73;;
13122;SDS011;6627;50.920;12.050;2023-07-02T12:49:02;5.37;;;4.50;;
13122;SDS011;6627;50.920;12.050;2023-07-02T12:51:35;6.43;;;4.53;;
13122;SDS011;6627;50.920;12.050;2023-07-02T12:54:19;6.20;;;4.20;;
13122;SDS011;6627;50.920;12.050;2023-07-02T12:56:59;7.20;;;4.30;;
13122;SDS011;6627;50.920;12.050;2023-07-02T12:59:45;5.60;;;4.93;;
13122;SDS011;6627;50.920;12.050;2023-07-02T13:02:21;7.17;;;4.50;;
13122;SDS011;6627;50.920;12.050;2023-07-02T13:04:54;7.50;;;4.73;;
13122;SDS011;6627;50.920;12.050;2023-07-02T13:07:26;7.20;;;4.90;;
13122;SDS011;6627;50.920;12.050;2023-07-02T13:09:59;7.43;;;5.10;;
13122;SDS011;6627;50.920;12.050;2023-07-02T13:12:30;5.50;;;4.57;;
13122;SDS011;6627;50.920;12.050;2023-07-02T13:15:04;8.60;;;5.40;;
13122;SDS011;6627;50.920;12.050;2023-07-02T13:17:40;9.70;;;5.17;;
13122;SDS011;6627;50.920;12.050;2023-07-02T13:20:24;8.20;;;5.57;;
13122;SDS011;6627;50.920;12.050;2023-07-02T13:22:55;5.97;;;4.87;;
13122;SDS011;6627;50.920;12.050;2023-07-02T13:25:34;12.93;;;5.50;;
13122;SDS011;6627;50.920;12.050;2023-07-02T13:28:12;6.77;;;4.93;;
13122;SDS011;6627;50.920;12.050;2023-07-02T13:30:43;5.90;;;5.30;;
13122;SDS011;6627;50.920;12.050;2023-07-02T13:33:10;7.73;;;5.43;;
13122;SDS011;6627;50.920;12.050;2023-07-02T13:35:43;6.63;;;5.30;;
13122;SDS011;6627;50.920;12.050;2023-07-02T13:38:18;10.30;;;5.20;;
13122;SDS011;6627;50.920;12.050;2023-07-02T13:40:51;7.43;;;5.50;;
13122;SDS011;6627;50.920;12.050;2023-07-02T13:43:22;10.90;;;5.40;;
13122;SDS011;6627;50.920;12.050;2023-07-02T13:46:00;10.03;;;5.73;;
13122;SDS011;6627;50.920;12.050;2023-07-02T13:48:33;7.47;;;5.90;;
13122;SDS011;6627;50.920;12.050;2023-07-02T13:51:12;8.63;;;5.33;;
13122;SDS011;6627;50.920;12.050;2023-07-02T13:53:49;9.37;;;5.80;;
13122;SDS011;6627;50.920;12.050;2023-07-02T13:56:23;8.23;;;5.80;;
13122;SDS011;6627;50.920;12.050;2023-07-02T13:59:03;8.27;;;5.83;;
13122;SDS011;6627;50.920;12.050;2023-07-02T14:01:40;10.17;;;5.17;;
13122;SDS011;6627;50.920;12.050;2023-07-02T14:04:16;9.77;;;5.50;;
13122;SDS011;6627;50.920;12.050;2023-07-02T14:06:52;6.70;;;5.43;;
13122;SDS011;6627;50.920;12.050;2023-07-02T14:09:24;7.67;;;5.40;;
13122;SDS011;6627;50.920;12.050;2023-07-02T14:11:53;11.20;;;5.90;;
13122;SDS011;6627;50.920;12.050;2023-07-02T14:14:23;8.17;;;6.00;;
13122;SDS011;6627;50.920;12.050;2023-07-02T14:16:53;6.30;;;5.57;;
13122;SDS011;6627;50.920;12.050;2023-07-02T14:19:26;8.70;;;5.97;;
13122;SDS011;6627;50.920;12.050;2023-07-02T14:22:02;12.03;;;6.40;;
13122;SDS011;6627;50.920;12.050;2023-07-02T14:24:39;8.37;;;5.73;;
13122;SDS011;6627;50.920;12.050;2023-07-02T14:27:16;7.77;;;5.60;;
13122;SDS011;6627;50.920;12.050;2023-07-02T14:30:01;10.07;;;6.53;;
13122;SDS011;6627;50.920;12.050;2023-07-02T14:32:45;6.93;;;5.70;;
13122;SDS011;6627;50.920;12.050;2023-07-02T14:35:23;8.03;;;5.77;;
13122;SDS011;6627;50.920;12.050;2023-07-02T14:37:57;6.63;;;5.70;;
13122;SDS011;6627;50.920;12.050;2023-07-02T14:40:38;11.20;;;5.90;;
13122;SDS011;6627;50.920;12.050;2023-07-02T14:43:21;9.50;;;6.30;;
13122;SDS011;6627;50.920;12.050;2023-07-02T14:46:01;8.53;;;6.00;;
13122;SDS011;6627;50.920;12.050;2023-07-02T14:48:48;8.90;;;6.47;;
13122;SDS011;6627;50.920;12.050;2023-07-02T14:51:34;9.47;;;5.90;;
13122;SDS011;6627;50.920;12.050;2023-07-02T14:54:14;7.87;;;6.83;;
13122;SDS011;6627;50.920;12.050;2023-07-02T14:56:52;11.60;;;7.17;;
13122;SDS011;6627;50.920;12.050;2023-07-02T14:59:29;10.67;;;6.87;;
13122;SDS011;6627;50.920;12.050;2023-07-02T15:02:01;9.40;;;6.57;;
13122;SDS011;6627;50.920;12.050;2023-07-02T15:04:45;9.27;;;6.60;;
13122;SDS011;6627;50.920;12.050;2023-07-02T15:07:15;9.07;;;7.00;;
13122;SDS011;6627;50.920;12.050;2023-07-02T15:09:49;10.00;;;7.53;;
13122;SDS011;6627;50.920;12.050;2023-07-02T15:12:23;9.87;;;7.00;;
13122;SDS011;6627;50.920;12.050;2023-07-02T15:14:56;10.07;;;7.17;;
13122;SDS011;6627;50.920;12.050;2023-07-02T15:17:31;10.83;;;7.37;;
13122;SDS011;6627;50.920;12.050;2023-07-02T15:20:07;9.70;;;7.57;;
13122;SDS011;6627;50.920;12.050;2023-07-02T15:22:41;11.27;;;8.13;;
13122;SDS011;6627;50.920;12.050;2023-07-02T15:25:19;12.93;;;7.70;;
13122;SDS011;6627;50.920;12.050;2023-07-02T15:27:51;12.37;;;8.00;;
13122;SDS011;6627;50.920;12.050;2023-07-02T15:30:38;13.57;;;7.97;;
13122;SDS011;6627;50.920;12.050;2023-07-02T15:33:17;11.17;;;7.17;;